createdAt,value
2023-04-12T00:02:03.492Z,3.90
2023-04-12T00:04:34.730Z,4.00
2023-04-12T00:07:06.237Z,4.10
2023-04-12T00:09:39.517Z,4.10
2023-04-12T00:12:10.346Z,4.10
2023-04-12T00:14:40.308Z,4.20
2023-04-12T00:17:10.261Z,4.10
2023-04-12T00:19:42.028Z,4.00
2023-04-12T00:22:12.420Z,3.90
2023-04-12T00:24:47.475Z,3.90
2023-04-12T00:27:17.441Z,3.90
2023-04-12T00:29:47.417Z,3.70
2023-04-12T00:32:17.380Z,3.70
2023-04-12T00:34:47.333Z,3.60
2023-04-12T00:37:17.407Z,3.60
2023-04-12T00:39:50.097Z,3.60
2023-04-12T00:42:20.094Z,3.50
2023-04-12T00:44:50.071Z,3.60
2023-04-12T00:47:20.147Z,3.50
2023-04-12T00:49:50.148Z,3.30
2023-04-12T00:52:20.313Z,3.20
2023-04-12T00:54:53.830Z,3.10
2023-04-12T00:57:23.919Z,3.20
2023-04-12T00:59:54.196Z,3.30
2023-04-12T01:02:24.343Z,3.30
2023-04-12T01:04:54.381Z,3.20
2023-04-12T01:07:37.884Z,3.20
2023-04-12T01:10:18.606Z,3.20
2023-04-12T01:13:01.756Z,3.30
2023-04-12T01:15:35.919Z,3.20
2023-04-12T01:18:11.782Z,3.20
2023-04-12T01:20:48.550Z,3.10
2023-04-12T01:23:34.242Z,3.00
2023-04-12T01:26:22.062Z,3.10
2023-04-12T01:28:57.220Z,3.00
2023-04-12T01:31:28.827Z,2.90
2023-04-12T01:34:02.206Z,2.90
2023-04-12T01:36:33.097Z,2.90
2023-04-12T01:39:04.717Z,2.90
2023-04-12T01:41:36.103Z,3.00
2023-04-12T01:44:08.658Z,3.00
2023-04-12T01:46:39.645Z,2.90
2023-04-12T01:49:09.774Z,2.80
2023-04-12T01:51:51.712Z,2.60
2023-04-12T01:54:25.769Z,2.60
2023-04-12T01:57:02.046Z,2.60
2023-04-12T01:59:42.125Z,2.60
2023-04-12T02:02:13.613Z,2.60
2023-04-12T02:04:46.015Z,2.60
2023-04-12T02:07:18.886Z,2.70
2023-04-12T02:09:49.040Z,2.60
2023-04-12T02:12:19.023Z,2.60
2023-04-12T02:14:52.100Z,2.60
2023-04-12T02:17:22.757Z,2.60
2023-04-12T02:19:52.723Z,2.40
2023-04-12T02:22:22.671Z,2.20
2023-04-12T02:24:52.656Z,2.30
2023-04-12T02:27:22.612Z,2.40
2023-04-12T02:29:56.071Z,2.40
2023-04-12T02:32:26.128Z,2.40
2023-04-12T02:34:57.874Z,2.40
2023-04-12T02:37:29.797Z,2.40
2023-04-12T02:40:02.645Z,2.40
2023-04-12T02:42:32.655Z,2.10
2023-04-12T02:45:05.235Z,2.10
2023-04-12T02:47:35.164Z,2.10
2023-04-12T02:50:05.174Z,2.00
2023-04-12T02:52:35.870Z,2.00
2023-04-12T02:55:06.182Z,2.00
2023-04-12T02:57:36.125Z,2.10
2023-04-12T03:00:12.414Z,2.00
2023-04-12T03:02:42.587Z,1.90
2023-04-12T03:05:14.890Z,1.90
2023-04-12T03:07:46.297Z,2.00
2023-04-12T03:10:16.347Z,2.10
2023-04-12T03:12:46.324Z,2.10
2023-04-12T03:15:19.271Z,1.90
2023-04-12T03:17:49.418Z,1.90
2023-04-12T03:20:20.545Z,1.90
2023-04-12T03:22:50.693Z,1.80
2023-04-12T03:25:21.059Z,1.80
2023-04-12T03:27:51.318Z,1.80
2023-04-12T03:30:24.233Z,1.80
2023-04-12T03:32:54.301Z,1.80
2023-04-12T03:35:24.347Z,1.90
2023-04-12T03:37:54.495Z,1.90
2023-04-12T03:40:24.690Z,1.90
2023-04-12T03:42:54.812Z,1.90
2023-04-12T03:45:27.864Z,1.80
2023-04-12T03:47:58.015Z,1.80
2023-04-12T03:50:29.755Z,1.80
2023-04-12T03:52:59.748Z,1.70
2023-04-12T03:55:29.759Z,1.60
2023-04-12T03:57:59.697Z,1.60
2023-04-12T04:00:34.537Z,1.60
2023-04-12T04:03:05.813Z,1.60
2023-04-12T04:05:35.965Z,1.60
2023-04-12T04:08:07.329Z,1.60
2023-04-12T04:10:37.457Z,1.60
2023-04-12T04:13:07.375Z,1.60
2023-04-12T04:15:40.023Z,1.60
2023-04-12T04:18:10.009Z,1.60
2023-04-12T04:20:40.305Z,1.70
2023-04-12T04:23:10.432Z,1.60
2023-04-12T04:25:40.396Z,1.60
2023-04-12T04:28:10.543Z,1.50
2023-04-12T04:30:46.283Z,1.50
2023-04-12T04:33:16.671Z,1.50
2023-04-12T04:35:46.933Z,1.50
2023-04-12T04:38:17.130Z,1.50
2023-04-12T04:40:48.057Z,1.50
2023-04-12T04:43:18.961Z,1.50
2023-04-12T04:45:54.862Z,1.50
2023-04-12T04:48:24.918Z,1.50
2023-04-12T04:50:55.324Z,1.40
2023-04-12T04:53:26.006Z,1.50
2023-04-12T04:56:01.250Z,1.50
2023-04-12T04:58:31.362Z,1.60
2023-04-12T05:01:03.985Z,1.60
2023-04-12T05:03:34.639Z,1.60
2023-04-12T05:06:05.143Z,1.70
2023-04-12T05:08:35.160Z,1.80
2023-04-12T05:11:05.148Z,1.80
2023-04-12T05:13:35.146Z,1.90
2023-04-12T05:16:11.528Z,2.00
2023-04-12T05:18:41.831Z,2.10
2023-04-12T05:21:11.818Z,2.20
2023-04-12T05:23:47.026Z,2.30
2023-04-12T05:26:17.070Z,2.40
2023-04-12T05:28:47.187Z,2.50
2023-04-12T05:31:19.910Z,2.60
2023-04-12T05:33:49.906Z,2.70
2023-04-12T05:36:19.986Z,2.70
2023-04-12T05:38:50.016Z,2.80
2023-04-12T05:41:19.954Z,2.80
2023-04-12T05:43:50.167Z,2.90
2023-04-12T05:46:22.800Z,3.10
2023-04-12T05:48:52.819Z,3.30
2023-04-12T05:51:34.110Z,3.40
2023-04-12T05:54:10.912Z,3.40
2023-04-12T05:56:41.127Z,3.50
2023-04-12T05:59:11.876Z,3.70
2023-04-12T06:01:45.069Z,3.70
2023-04-12T06:04:15.361Z,3.80
2023-04-12T06:06:47.634Z,3.90
2023-04-12T06:09:17.639Z,4.00
2023-04-12T06:11:47.666Z,4.10
2023-04-12T06:14:17.680Z,4.10
2023-04-12T06:16:50.251Z,4.20
2023-04-12T06:19:20.308Z,4.30
2023-04-12T06:21:50.583Z,4.50
2023-04-12T06:24:20.889Z,4.60
2023-04-12T06:26:50.883Z,4.70
2023-04-12T06:29:21.042Z,4.90
2023-04-12T06:31:53.824Z,5.00
2023-04-12T06:34:23.900Z,5.20
2023-04-12T06:36:53.892Z,5.50
2023-04-12T06:39:23.894Z,5.70
2023-04-12T06:41:53.945Z,5.90
2023-04-12T06:44:23.925Z,6.20
2023-04-12T06:46:56.715Z,6.20
2023-04-12T06:49:26.728Z,6.40
2023-04-12T06:51:56.764Z,6.70
2023-04-12T06:54:26.906Z,6.80
2023-04-12T06:56:57.558Z,6.80
2023-04-12T06:59:27.665Z,7.10
2023-04-12T07:02:00.304Z,7.20
2023-04-12T07:04:33.156Z,7.30
2023-04-12T07:07:03.242Z,7.50
2023-04-12T07:09:35.340Z,7.60
2023-04-12T07:12:05.370Z,7.70
2023-04-12T07:14:35.374Z,7.70
2023-04-12T07:17:08.053Z,7.70
2023-04-12T07:19:39.695Z,8.00
2023-04-12T07:22:10.864Z,8.20
2023-04-12T07:24:42.414Z,8.30
2023-04-12T07:27:12.495Z,8.60
2023-04-12T07:29:42.547Z,8.80
2023-04-12T07:32:15.145Z,8.90
2023-04-12T07:34:45.150Z,8.80
2023-04-12T07:37:15.226Z,8.70
2023-04-12T07:39:45.758Z,9.10
2023-04-12T07:42:15.783Z,9.30
2023-04-12T07:44:45.733Z,9.30
2023-04-12T07:47:18.302Z,9.40
2023-04-12T07:49:48.384Z,9.40
2023-04-12T07:52:18.573Z,9.00
2023-04-12T07:54:48.611Z,9.10
2023-04-12T07:57:18.770Z,9.50
2023-04-12T07:59:48.806Z,9.70
2023-04-12T08:02:25.226Z,9.90
2023-04-12T08:04:55.742Z,10.00
2023-04-12T08:07:27.213Z,9.90
2023-04-12T08:09:57.258Z,10.00
2023-04-12T08:12:27.404Z,9.70
2023-04-12T08:14:57.368Z,9.60
2023-04-12T08:17:29.922Z,10.00
2023-04-12T08:19:59.966Z,10.00
2023-04-12T08:22:31.123Z,10.40
2023-04-12T08:25:01.299Z,10.30
2023-04-12T08:27:32.967Z,10.50
2023-04-12T08:30:03.552Z,10.60
2023-04-12T08:32:37.732Z,10.40
2023-04-12T08:35:08.435Z,10.80
2023-04-12T08:37:39.028Z,11.00
2023-04-12T08:40:11.563Z,11.00
2023-04-12T08:42:41.864Z,10.90
2023-04-12T08:45:14.789Z,11.20
2023-04-12T08:47:48.094Z,11.10
2023-04-12T08:50:18.309Z,11.10
2023-04-12T08:52:50.378Z,11.00
2023-04-12T08:55:20.582Z,11.20
2023-04-12T08:57:51.822Z,11.30
2023-04-12T09:00:23.783Z,11.30
2023-04-12T09:02:56.560Z,11.30
2023-04-12T09:05:32.661Z,11.40
2023-04-12T09:08:02.680Z,11.40
2023-04-12T09:10:38.055Z,11.60
2023-04-12T09:13:08.968Z,11.70
2023-04-12T09:15:39.511Z,11.80
2023-04-12T09:18:17.113Z,12.00
2023-04-12T09:20:47.432Z,11.80
2023-04-12T09:23:22.560Z,11.70
2023-04-12T09:25:53.700Z,11.70
2023-04-12T09:28:27.489Z,11.70
2023-04-12T09:30:59.315Z,11.80
2023-04-12T09:33:40.819Z,11.90
2023-04-12T09:36:14.603Z,12.10
2023-04-12T09:39:01.577Z,12.00
2023-04-12T09:41:32.214Z,11.90
2023-04-12T09:44:02.684Z,12.10
2023-04-12T09:46:32.863Z,12.10
2023-04-12T09:49:05.820Z,12.10
2023-04-12T09:51:37.557Z,12.10
2023-04-12T09:54:09.740Z,12.10
2023-04-12T09:56:42.373Z,12.20
2023-04-12T09:59:12.493Z,12.10
2023-04-12T10:01:43.935Z,12.20
2023-04-12T10:04:17.224Z,12.40
2023-04-12T10:06:47.736Z,12.20
2023-04-12T10:09:18.005Z,12.30
2023-04-12T10:11:48.739Z,12.40
2023-04-12T10:14:21.608Z,12.20
2023-04-12T10:16:56.154Z,12.40
2023-04-12T10:19:31.366Z,12.40
2023-04-12T10:22:02.369Z,12.30
2023-04-12T10:24:33.000Z,12.90
2023-04-12T10:27:04.728Z,12.80
2023-04-12T10:29:38.712Z,12.90
2023-04-12T10:32:25.110Z,12.70
2023-04-12T10:35:00.919Z,12.70
2023-04-12T10:38:01.838Z,12.90
2023-04-12T10:40:32.481Z,13.00
2023-04-12T10:43:27.681Z,12.90
2023-04-12T10:45:59.202Z,13.00
2023-04-12T10:48:36.602Z,12.90
2023-04-12T10:51:26.891Z,13.10
2023-04-12T10:54:17.855Z,13.10
2023-04-12T10:56:49.391Z,13.20
2023-04-12T10:59:19.942Z,13.20
2023-04-12T11:02:16.024Z,12.90
2023-04-12T11:05:11.654Z,13.00
2023-04-12T11:07:47.227Z,13.10
2023-04-12T11:10:20.252Z,13.20
2023-04-12T11:12:52.746Z,13.50
2023-04-12T11:15:23.906Z,13.50
2023-04-12T11:17:58.010Z,13.20
2023-04-12T11:20:30.155Z,13.30
2023-04-12T11:23:03.898Z,13.40
2023-04-12T11:25:35.081Z,13.50
2023-04-12T11:28:13.865Z,13.50
2023-04-12T11:30:54.927Z,13.90
2023-04-12T11:33:38.298Z,13.70
2023-04-12T11:36:10.434Z,13.90
2023-04-12T11:38:46.307Z,13.80
2023-04-12T11:41:18.758Z,13.50
2023-04-12T11:43:49.044Z,13.60
2023-04-12T11:46:19.170Z,13.60
2023-04-12T11:48:49.645Z,13.70
2023-04-12T11:51:25.358Z,13.60
2023-04-12T11:54:01.126Z,13.90
2023-04-12T11:56:32.679Z,14.20
2023-04-12T11:59:02.775Z,14.30
2023-04-12T12:01:34.138Z,13.80
2023-04-12T12:04:05.538Z,13.80
2023-04-12T12:06:36.493Z,13.90
2023-04-12T12:09:09.684Z,14.20
2023-04-12T12:11:39.781Z,14.10
2023-04-12T12:14:09.824Z,14.40
2023-04-12T12:16:41.890Z,14.40
2023-04-12T12:19:11.963Z,14.60
2023-04-12T12:21:42.173Z,14.40
2023-04-12T12:24:16.852Z,14.20
2023-04-12T12:26:46.790Z,14.10
2023-04-12T12:29:23.662Z,14.00
2023-04-12T12:31:54.106Z,14.10
2023-04-12T12:34:24.135Z,14.00
2023-04-12T12:36:58.654Z,13.80
2023-04-12T12:39:31.059Z,13.80
2023-04-12T12:42:03.018Z,13.90
2023-04-12T12:44:35.502Z,14.10
2023-04-12T12:47:13.980Z,13.90
2023-04-12T12:49:45.014Z,13.90
2023-04-12T12:52:17.308Z,14.10
2023-04-12T12:54:50.624Z,14.10
2023-04-12T12:57:20.731Z,14.10
2023-04-12T12:59:50.818Z,14.10
2023-04-12T13:02:21.152Z,14.30
2023-04-12T13:04:51.596Z,14.20
2023-04-12T13:07:21.797Z,14.10
2023-04-12T13:09:54.715Z,14.00
2023-04-12T13:12:24.905Z,14.00
2023-04-12T13:15:00.313Z,14.00
2023-04-12T13:17:43.387Z,13.90
2023-04-12T13:20:13.893Z,13.80
2023-04-12T13:22:44.038Z,13.80
2023-04-12T13:25:16.967Z,13.80
2023-04-12T13:27:47.035Z,14.20
2023-04-12T13:30:17.336Z,14.30
2023-04-12T13:32:47.583Z,14.40
2023-04-12T13:35:17.716Z,14.40
2023-04-12T13:37:47.937Z,14.30
2023-04-12T13:40:20.731Z,14.20
2023-04-12T13:42:50.847Z,14.30
2023-04-12T13:45:21.018Z,14.30
2023-04-12T13:47:51.241Z,14.30
2023-04-12T13:50:21.788Z,14.40
2023-04-12T13:52:51.894Z,14.50
2023-04-12T13:55:24.876Z,14.60
2023-04-12T13:57:55.012Z,14.60
2023-04-12T14:00:26.002Z,14.60
2023-04-12T14:02:56.211Z,14.70
2023-04-12T14:05:26.260Z,14.80
2023-04-12T14:07:56.518Z,14.80
2023-04-12T14:10:29.235Z,14.80
2023-04-12T14:12:59.531Z,14.60
2023-04-12T14:15:29.645Z,14.50
2023-04-12T14:18:00.114Z,14.60
2023-04-12T14:20:30.646Z,14.50
2023-04-12T14:23:01.204Z,14.60
2023-04-12T14:25:35.550Z,14.50
2023-04-12T14:28:05.549Z,14.30
2023-04-12T14:30:35.933Z,14.20
2023-04-12T14:33:06.360Z,14.10
2023-04-12T14:35:36.850Z,14.00
2023-04-12T14:38:07.483Z,14.00
2023-04-12T14:40:40.298Z,13.90
2023-04-12T14:43:10.878Z,13.90
2023-04-12T14:45:41.273Z,13.90
2023-04-12T14:48:11.479Z,13.80
2023-04-12T14:50:41.920Z,13.80
2023-04-12T14:53:14.391Z,13.80
2023-04-12T14:55:48.902Z,13.80
2023-04-12T14:58:19.080Z,13.70
2023-04-12T15:00:49.895Z,13.80
2023-04-12T15:03:21.331Z,13.80
2023-04-12T15:05:52.001Z,13.70
2023-04-12T15:08:29.373Z,13.70
2023-04-12T15:11:02.903Z,13.70
2023-04-12T15:13:35.135Z,13.70
2023-04-12T15:16:06.810Z,13.70
2023-04-12T15:18:39.830Z,13.60
2023-04-12T15:21:12.253Z,13.70
2023-04-12T15:23:45.133Z,13.70
2023-04-12T15:26:18.376Z,13.60
2023-04-12T15:28:48.776Z,13.60
2023-04-12T15:31:19.074Z,13.50
2023-04-12T15:33:50.703Z,13.40
2023-04-12T15:36:22.332Z,13.50
2023-04-12T15:38:52.519Z,13.40
2023-04-12T15:41:25.327Z,13.30
2023-04-12T15:43:55.764Z,13.30
2023-04-12T15:46:26.772Z,13.20
2023-04-12T15:48:57.833Z,13.20
2023-04-12T15:51:28.287Z,13.10
2023-04-12T15:53:59.078Z,13.00
2023-04-12T15:56:32.700Z,12.90
2023-04-12T15:59:03.760Z,12.90
2023-04-12T16:01:35.888Z,12.80
2023-04-12T16:04:07.371Z,12.70
2023-04-12T16:06:38.419Z,12.70
2023-04-12T16:09:09.128Z,12.70
2023-04-12T16:11:43.882Z,12.50
2023-04-12T16:14:14.809Z,12.40
2023-04-12T16:16:45.171Z,12.30
2023-04-12T16:19:15.396Z,12.40
2023-04-12T16:21:46.186Z,12.30
2023-04-12T16:24:16.456Z,12.30
2023-04-12T16:26:49.281Z,12.30
2023-04-12T16:29:19.703Z,12.30
2023-04-12T16:31:51.852Z,12.20
2023-04-12T16:34:22.803Z,12.10
2023-04-12T16:36:54.348Z,12.10
2023-04-12T16:39:24.568Z,12.10
2023-04-12T16:41:57.678Z,12.00
2023-04-12T16:44:28.136Z,11.90
2023-04-12T16:46:58.554Z,11.90
2023-04-12T16:49:28.844Z,11.90
2023-04-12T16:51:59.531Z,11.70
2023-04-12T16:54:30.122Z,11.80
2023-04-12T16:57:03.204Z,11.70
2023-04-12T16:59:35.412Z,11.70
2023-04-12T17:02:05.921Z,11.60
2023-04-12T17:04:36.531Z,11.60
2023-04-12T17:07:07.082Z,11.50
2023-04-12T17:09:37.306Z,11.50
2023-04-12T17:12:10.686Z,11.60
2023-04-12T17:14:40.852Z,11.60
2023-04-12T17:17:11.231Z,11.60
2023-04-12T17:19:41.490Z,11.50
2023-04-12T17:22:11.964Z,11.60
2023-04-12T17:24:42.607Z,11.50
2023-04-12T17:27:15.218Z,11.40
2023-04-12T17:29:45.656Z,11.40
2023-04-12T17:32:16.269Z,11.50
2023-04-12T17:34:46.565Z,11.40
2023-04-12T17:37:17.060Z,11.30
2023-04-12T17:39:47.242Z,11.30
2023-04-12T17:42:21.843Z,11.30
2023-04-12T17:44:52.291Z,11.30
2023-04-12T17:47:23.328Z,11.30
2023-04-12T17:49:53.793Z,11.30
2023-04-12T17:52:24.064Z,11.30
2023-04-12T17:54:54.320Z,11.30
2023-04-12T17:57:27.801Z,11.20
2023-04-12T17:59:58.646Z,11.30
2023-04-12T18:02:29.179Z,11.30
2023-04-12T18:04:59.622Z,11.30
2023-04-12T18:07:30.783Z,11.30
2023-04-12T18:10:02.445Z,11.30
2023-04-12T18:12:35.217Z,11.30
2023-04-12T18:15:06.359Z,11.20
2023-04-12T18:17:36.664Z,11.30
2023-04-12T18:20:10.712Z,11.20
2023-04-12T18:22:42.883Z,11.30
2023-04-12T18:25:14.562Z,11.20
2023-04-12T18:27:50.180Z,11.20
2023-04-12T18:30:20.512Z,11.20
2023-04-12T18:32:50.808Z,11.20
2023-04-12T18:35:21.419Z,11.20
2023-04-12T18:37:51.630Z,11.20
2023-04-12T18:40:23.461Z,11.10
2023-04-12T18:42:56.224Z,11.10
2023-04-12T18:45:26.689Z,11.20
2023-04-12T18:47:57.206Z,11.20
2023-04-12T18:50:27.733Z,11.20
2023-04-12T18:52:58.015Z,11.20
2023-04-12T18:55:28.247Z,11.20
2023-04-12T18:58:01.000Z,11.20
2023-04-12T19:00:31.935Z,11.10
2023-04-12T19:03:02.673Z,11.10
2023-04-12T19:05:33.091Z,11.10
2023-04-12T19:08:03.694Z,11.10
2023-04-12T19:10:34.449Z,11.10
2023-04-12T19:13:07.517Z,11.00
2023-04-12T19:15:37.799Z,10.90
2023-04-12T19:18:08.265Z,10.90
2023-04-12T19:20:38.528Z,10.90
2023-04-12T19:23:10.892Z,10.90
2023-04-12T19:25:41.275Z,10.80
2023-04-12T19:28:14.003Z,10.80
2023-04-12T19:30:44.026Z,10.80
2023-04-12T19:33:14.108Z,10.70
2023-04-12T19:35:44.304Z,10.70
2023-04-12T19:38:15.723Z,10.60
2023-04-12T19:40:45.928Z,10.60
2023-04-12T19:43:18.823Z,10.70
2023-04-12T19:45:49.062Z,10.60
2023-04-12T19:48:19.974Z,10.70
2023-04-12T19:50:50.788Z,10.60
2023-04-12T19:53:21.737Z,10.50
2023-04-12T19:55:52.607Z,10.60
2023-04-12T19:58:25.356Z,10.60
2023-04-12T20:00:55.980Z,10.60
2023-04-12T20:03:26.072Z,10.70
2023-04-12T20:05:58.244Z,10.60
2023-04-12T20:08:28.582Z,10.60
2023-04-12T20:10:58.808Z,10.60
2023-04-12T20:13:31.566Z,10.60
2023-04-12T20:16:04.607Z,10.60
2023-04-12T20:18:34.762Z,10.50
2023-04-12T20:21:06.189Z,10.50
2023-04-12T20:23:36.435Z,10.50
2023-04-12T20:26:07.565Z,10.50
2023-04-12T20:28:40.400Z,10.50
2023-04-12T20:31:10.717Z,10.30
2023-04-12T20:33:41.376Z,10.40
2023-04-12T20:36:13.464Z,10.30
2023-04-12T20:38:43.636Z,10.30
2023-04-12T20:41:13.747Z,10.30
2023-04-12T20:43:51.107Z,10.30
2023-04-12T20:46:25.943Z,10.30
2023-04-12T20:48:58.425Z,10.30
2023-04-12T20:51:29.627Z,10.30
2023-04-12T20:54:02.271Z,10.20
2023-04-12T20:56:32.794Z,10.20
2023-04-12T20:59:05.562Z,10.20
2023-04-12T21:01:35.838Z,10.20
2023-04-12T21:04:06.852Z,10.10
2023-04-12T21:06:37.787Z,10.10
2023-04-12T21:09:10.238Z,10.10
2023-04-12T21:11:41.526Z,10.10
2023-04-12T21:14:14.529Z,10.10
2023-04-12T21:16:45.728Z,10.10
2023-04-12T21:19:15.818Z,10.10
2023-04-12T21:21:46.101Z,10.00
2023-04-12T21:24:16.288Z,10.00
2023-04-12T21:26:46.338Z,10.10
2023-04-12T21:29:19.851Z,10.10
2023-04-12T21:31:49.901Z,10.00
2023-04-12T21:34:21.865Z,10.00
2023-04-12T21:36:53.693Z,10.00
2023-04-12T21:39:23.922Z,10.00
2023-04-12T21:41:53.969Z,9.90
2023-04-12T21:44:26.832Z,9.90
2023-04-12T21:46:56.919Z,9.70
2023-04-12T21:49:27.210Z,9.80
2023-04-12T21:51:59.437Z,9.70
2023-04-12T21:54:31.617Z,9.70
2023-04-12T21:57:02.339Z,9.70
2023-04-12T21:59:35.083Z,9.70
2023-04-12T22:02:05.293Z,9.70
2023-04-12T22:04:35.452Z,9.50
2023-04-12T22:07:06.900Z,9.60
2023-04-12T22:09:36.938Z,9.60
2023-04-12T22:12:07.447Z,9.60
2023-04-12T22:14:40.568Z,9.70
2023-04-12T22:17:10.786Z,9.60
2023-04-12T22:19:40.951Z,9.60
2023-04-12T22:22:11.235Z,9.60
2023-04-12T22:24:41.667Z,9.60
2023-04-12T22:27:11.825Z,9.60
2023-04-12T22:29:44.729Z,9.60
2023-04-12T22:32:14.780Z,9.60
2023-04-12T22:34:45.815Z,9.50
2023-04-12T22:37:16.998Z,9.60
2023-04-12T22:39:51.528Z,9.50
2023-04-12T22:42:26.625Z,9.50
2023-04-12T22:45:00.781Z,9.50
2023-04-12T22:47:31.660Z,9.50
2023-04-12T22:50:02.047Z,9.40
2023-04-12T22:52:33.716Z,9.40
2023-04-12T22:55:03.846Z,9.50
2023-04-12T22:57:35.214Z,9.40
2023-04-12T23:00:16.596Z,9.40
2023-04-12T23:02:48.953Z,9.50
2023-04-12T23:05:20.057Z,9.50
2023-04-12T23:07:50.195Z,9.50
2023-04-12T23:10:20.836Z,9.50
2023-04-12T23:12:53.682Z,9.50
2023-04-12T23:15:26.502Z,9.50
2023-04-12T23:17:56.951Z,9.40
2023-04-12T23:20:27.300Z,9.40
2023-04-12T23:22:58.435Z,9.30
2023-04-12T23:25:41.436Z,9.40
2023-04-12T23:28:14.700Z,9.40
2023-04-12T23:30:52.766Z,9.40
2023-04-12T23:33:25.485Z,9.40
2023-04-12T23:35:56.244Z,9.40
2023-04-12T23:38:32.472Z,9.50
2023-04-12T23:41:04.380Z,9.30
2023-04-12T23:43:37.141Z,9.30
2023-04-12T23:46:10.370Z,9.30
2023-04-12T23:48:40.736Z,9.40
2023-04-12T23:51:11.245Z,9.30
2023-04-12T23:53:41.318Z,9.30
2023-04-12T23:56:13.176Z,9.30
2023-04-12T23:58:43.173Z,9.30
